Impacts METAR Board
IDs:

KPHL - Philadelphia Intl, PA, US

Updated at: 2100 UTC 20 Jun 2019
Potential Impact None Slight Moderate High
Time 20/09Z 20/10Z 20/11Z 20/12Z 20/13Z 20/14Z 20/15Z 20/16Z 20/17Z 20/18Z 20/19Z 20/20Z 20/21Z
Temp70 70 70 71 73 77 78 80 83 86 84 77 78
Dewpt67 68 68 69 71 73 73 73 72 71 72 72 71
Altim29.65 29.65 29.63 29.62 29.62 29.61 29.61 29.58 29.56 29.52 29.51 29.51 29.49
VIS10 10 10 10 8 9 8 10 10 10 4 10 10
CIG28 11 6 6 16 11 12 39 34 160 33 250 250
CoverOVCOVCOVCOVCOVCOVCOVCBKNBKNBKNOVCBKNBKN
FltCatMVFRMVFRIFRIFRMVFRMVFRMVFRVFRVFRVFRMVFRVFRVFR
WX--------------------+TSRA----
WDir307080900160190200230220240250230
WSpd4 5 6 4 0 3 7 9 9 11 14 6 7
WGst-- -- -- -- -- -- -- -- -- -- -- -- --
Raw hourly METARs
KPHL 200854Z 03004KT 10SM BKN028 OVC036 21/19 A2965 RMK AO2 LTG DSNT N SLP041 60116 T02110194 56013 $
KPHL 200954Z 07005KT 10SM BKN011 OVC017 21/20 A2965 RMK AO2 RAB14E53 SLP040 P0009 T02110200 $
KPHL 201103Z 08006KT 10SM OVC006 21/20 A2963 RMK AO2 CIG 005V007 T02110200 $
KPHL 201154Z 09004KT 10SM BKN006 OVC015 22/21 A2962 RMK AO2 SLP030 CIG 005V007 60125 70442 T02170206 10217 20200 58011
KPHL 201254Z 00000KT 8SM FEW005 SCT008 OVC016 23/22 A2962 RMK AO2 SLP031 CIG 014V018 SCT V BKN T02280217
KPHL 201354Z 16003KT 9SM FEW007 BKN011 OVC024 25/23 A2961 RMK AO2 SLP026 BKN V SCT T02500228
KPHL 201454Z 19007KT 8SM SCT008 BKN012 OVC020 26/23 A2961 RMK AO2 SLP026 T02560228 58004
KPHL 201554Z 20009KT 10SM FEW009 SCT014 BKN039 27/23 A2958 RMK AO2 SLP016 T02670228
KPHL 201654Z 23009KT 10SM FEW013 SCT022 BKN034 BKN160 BKN250 28/22 A2956 RMK AO2 SLP009 T02830222
KPHL 201754Z 22011KT 10SM SCT028 SCT038 BKN160 BKN250 30/22 A2952 RMK AO2 SLP994 T03000217 10300 20217 58031
KPHL 201905Z 24014KT 4SM R09R/5000VP6000FT +TSRA BKN033 BKN044CB BKN085 OVC250 29/22 A2951 RMK AO2 LTG DSNT W-N RAB01 TSB05 FRQ LTGICCG OHD TS OHD MOV E P0000 T02890222
KPHL 202004Z 25006KT 10SM FEW014 SCT055 SCT075 BKN250 25/22 A2951 RMK AO2 LTG DSNT NE AND E RAE01 TSE04 OCNL LTGICCG DSNT E CB DSNT E MOV NE P0000 T02500222 $
KPHL 202054Z 23007KT 10SM FEW030 FEW055 SCT075 BKN250 26/22 A2949 RMK AO2 LTG DSNT SE AND S RAE01 TSE04 SLP987 P0000 60021 T02560217 58007 $



Page loaded:  21:10 UTC  |   02:10 PM Pacific  |   03:10 PM Mountain  |   04:10 PM Central  |   05:10 PM Eastern

 

ADVISORIES

FORECASTS

FORECASTS

OBSERVATIONS

USER TOOLS

ABOUT US